Dickinson's Hourly Summary for Sunday, July 8, 2018
Hour Temp
(f)
RH
(%)
Solar Rad.
(MJ/m2)
Rainfall
(in)
Wind
(mph)
7/8/2018 12:00 AM 79 88 0 0 0
7/8/2018 1:00 AM 78 92 0 0 0
7/8/2018 2:00 AM 77 91 0 0 0
7/8/2018 3:00 AM 77 80 0 0 0.27
7/8/2018 4:00 AM 77 79 0 0 0
7/8/2018 5:00 AM 77 87 0 0 0.21
7/8/2018 6:00 AM 77 89 0 0 1.05
7/8/2018 7:00 AM 76 90 0.02 0 0.1
7/8/2018 8:00 AM 77 88 0.23 0 0.25
7/8/2018 9:00 AM 79 83 0.5 0 0.18
7/8/2018 10:00 AM 81 74 1.02 0 0.84
7/8/2018 11:00 AM 82 72 0.89 0 3
7/8/2018 12:00 PM 80 76 0.67 0 1.96
7/8/2018 1:00 PM 79 81 1.04 0 2.09
7/8/2018 2:00 PM 77 82 0.85 0 3.12
7/8/2018 3:00 PM 77 86 0.51 0.04 0.04
7/8/2018 4:00 PM 78 86 1.09 0.01 0.02
7/8/2018 5:00 PM 81 77 1.24 0 0.03
7/8/2018 6:00 PM 82 69 1.2 0 1.52
7/8/2018 7:00 PM 81 71 0.53 0 3.45
7/8/2018 8:00 PM 81 74 0.29 0 2.1
7/8/2018 9:00 PM 79 80 0.02 0 0.5
7/8/2018 10:00 PM 77 87 0 0 0
7/8/2018 11:00 PM 77 91 0 0 0.04
Data Summary 78 82 10.10 0.05 0.87